»·PEaware :: N4131C KOAK-KMRY

N4131C :: KOAK-KMRY

FLIGHT INFORMATION

Flight Status: Arrived
Operator: Privately registered:
United States
More flights under this callsign
Pilot: Jon C. (41724)
Aircraft: PIPER PA-28R-201 ARROW
(P28R)
More flights by this aircraft type
Origin: KOAK Metro Oakland Intl
United States
Destination: KMRY Monterey Peninsula
United States
More flights between these airports :: More routes between these airports
Route: SNS
File this flight plan on PilotEdge
Remarks:
Altitude:
(Current/Filed)
7,000ft
Speed:
(Current/Filed)
135kts
Departed: 24-Jan-23 06:10 PM
Arrived: 24-Jan-23 07:07 PM
Distance/Time
Traveled:
70nm/0:57
Distance/Time
To Go:
Arrived

Flight Plot

Page will automatically refresh every two minutes.


Map Options




Map Legend


Flown Route
Filed Route
Departure Airport
Arrival Airport
Navaid (VOR, NDB)
Fix

Horizontal Profiles

Position Reports

Time Latitude Longitude Heading Altitude Ground
Speed
24-Jan-23 17:51 37.733598 -122.215509 233 7ft 0kts
24-Jan-23 17:52 37.733598 -122.215509 233 7ft 0kts
24-Jan-23 17:53 37.733598 -122.215509 233 7ft 0kts
24-Jan-23 17:54 37.733598 -122.215509 233 7ft 0kts
24-Jan-23 17:55 37.733598 -122.215509 233 7ft 0kts
24-Jan-23 17:56 37.733598 -122.215509 233 7ft 0kts
24-Jan-23 17:57 37.733598 -122.215509 233 7ft 0kts
24-Jan-23 17:58 37.733598 -122.215509 233 7ft 0kts
24-Jan-23 17:59 37.733598 -122.215509 233 7ft 0kts
24-Jan-23 18:00 37.733598 -122.215509 233 7ft 0kts
24-Jan-23 18:01 37.733598 -122.215509 233 7ft 0kts
24-Jan-23 18:02 37.733598 -122.215509 233 7ft 0kts
24-Jan-23 18:03 37.733598 -122.215509 233 7ft 0kts
24-Jan-23 18:04 37.733598 -122.215509 233 7ft 0kts
24-Jan-23 18:05 37.730840 -122.215828 139 7ft 16kts
24-Jan-23 18:06 37.727877 -122.210799 108 7ft 19kts
24-Jan-23 18:07 37.725944 -122.204816 117 7ft 11kts
24-Jan-23 18:08 37.725744 -122.204572 152 6ft 0kts
24-Jan-23 18:09 37.727539 -122.213018 284 137ft 77kts
24-Jan-23 18:10 37.736960 -122.238699 292 1309ft 88kts
24-Jan-23 18:11 37.749647 -122.277680 291 1458ft 147kts
24-Jan-23 18:12 37.763602 -122.324294 289 1764ft 135kts
24-Jan-23 18:13 37.752609 -122.367202 207 1962ft 142kts
24-Jan-23 18:14 37.715397 -122.380219 188 1967ft 142kts
24-Jan-23 18:15 37.677159 -122.391564 188 1971ft 143kts
24-Jan-23 18:16 37.638725 -122.403007 187 1968ft 143kts
24-Jan-23 18:17 37.604437 -122.413597 187 2780ft 118kts
24-Jan-23 18:18 37.575381 -122.419688 194 3938ft 102kts
24-Jan-23 18:19 37.552146 -122.430937 204 4909ft 93kts
24-Jan-23 18:20 37.528206 -122.442457 202 5696ft 106kts
24-Jan-23 18:21 37.498225 -122.456496 202 6414ft 121kts
24-Jan-23 18:22 37.464915 -122.468901 202 6967ft 139kts
24-Jan-23 18:23 37.425109 -122.482637 202 6979ft 153kts
24-Jan-23 18:24 37.383962 -122.497103 200 6976ft 153kts
24-Jan-23 18:25 37.342632 -122.512521 201 6974ft 154kts
24-Jan-23 18:26 37.302915 -122.532936 214 6970ft 151kts
24-Jan-23 18:27 37.271144 -122.565495 232 6972ft 147kts
24-Jan-23 18:28 37.233620 -122.565370 146 6971ft 155kts
24-Jan-23 18:29 37.198261 -122.536489 139 6970ft 146kts
24-Jan-23 18:30 37.165718 -122.506907 139 6971ft 143kts
24-Jan-23 18:31 37.133045 -122.477360 139 6970ft 143kts
24-Jan-23 18:32 37.100634 -122.448372 139 6972ft 142kts
24-Jan-23 18:33 37.067985 -122.419391 138 6966ft 143kts
24-Jan-23 18:34 37.035284 -122.390883 137 6967ft 142kts
24-Jan-23 18:35 37.003339 -122.363037 137 6966ft 143kts
24-Jan-23 18:36 36.971075 -122.334930 137 6966ft 142kts
24-Jan-23 18:37 36.938643 -122.306923 138 6966ft 142kts
24-Jan-23 18:38 36.906426 -122.278333 136 6964ft 141kts
24-Jan-23 18:39 36.876833 -122.248158 110 6959ft 132kts
24-Jan-23 18:40 36.861680 -122.207686 101 6957ft 128kts
24-Jan-23 18:41 36.848384 -122.166128 101 6960ft 128kts
24-Jan-23 18:42 36.834625 -122.124899 101 6957ft 128kts
24-Jan-23 18:43 36.822793 -122.083048 96 6951ft 125kts
24-Jan-23 18:44 36.809631 -122.041806 102 6952ft 128kts
24-Jan-23 18:45 36.795878 -122.000677 101 6951ft 128kts
24-Jan-23 18:46 36.782387 -121.958828 101 6949ft 129kts
24-Jan-23 18:47 36.769084 -121.917391 100 6944ft 128kts
24-Jan-23 18:48 36.755562 -121.876170 101 6950ft 129kts
24-Jan-23 18:49 36.742377 -121.834592 100 6942ft 129kts
24-Jan-23 18:50 36.728470 -121.793360 104 6945ft 129kts
24-Jan-23 18:51 36.713955 -121.752165 104 6942ft 130kts
24-Jan-23 18:52 36.699650 -121.710062 104 6677ft 145kts
24-Jan-23 18:53 36.684258 -121.663281 105 5775ft 150kts
24-Jan-23 18:54 36.669178 -121.617982 104 5084ft 130kts
24-Jan-23 18:55 36.648982 -121.587232 161 5067ft 130kts
24-Jan-23 18:56 36.614087 -121.576814 161 5058ft 112kts
24-Jan-23 18:57 36.586534 -121.569700 168 5062ft 99kts
24-Jan-23 18:58 36.571060 -121.590787 267 5063ft 92kts
24-Jan-23 18:59 36.563949 -121.623774 247 4846ft 104kts
24-Jan-23 19:00 36.563734 -121.658149 289 4049ft 104kts
24-Jan-23 19:01 36.570380 -121.693886 279 3147ft 112kts
24-Jan-23 19:02 36.574026 -121.732848 275 2077ft 111kts
24-Jan-23 19:03 36.576654 -121.768148 273 1552ft 98kts
24-Jan-23 19:04 36.579021 -121.802621 273 1108ft 94kts
24-Jan-23 19:05 36.584121 -121.836062 293 296ft 104kts
24-Jan-23 19:06 36.589855 -121.853265 266 162ft 10kts
24-Jan-23 19:07 36.588862 -121.853743 217 168ft 0kts

Navigation Log

Ident Type
Flight plan parsing failed, navigation log unavailable